Time;durP1;ratioP1;P1;durP2;ratioP2;P2;SDS_P1;SDS_P2;PMS_P1;PMS_P2;Temp;Humidity;BMP_temperature;BMP_pressure;BME280_temperature;BME280_humidity;BME280_pressure;Samples;Min_cycle;Max_cycle;Signal;HPM_P1;HPM_P2
2022/03/04 00:02:01;;;;;;;14.52;12.40;;;15.60;46.00;;;;;;5095609;28;20046;-49
2022/03/04 00:04:28;;;;;;;12.85;11.45;;;15.60;46.00;;;;;;5095735;28;20467;-45
2022/03/04 00:06:55;;;;;;;12.95;11.40;;;15.60;46.00;;;;;;5094451;28;20043;-46
2022/03/04 00:09:21;;;;;;;14.02;11.98;;;15.60;46.00;;;;;;5095973;28;20115;-48
2022/03/04 00:11:48;;;;;;;13.63;12.07;;;15.60;46.00;;;;;;5096054;28;20087;-46
2022/03/04 00:14:14;;;;;;;12.63;11.32;;;15.50;46.00;;;;;;5097267;28;20031;-49
2022/03/04 00:16:40;;;;;;;13.90;12.50;;;15.60;46.00;;;;;;5096891;28;20035;-48
2022/03/04 00:19:06;;;;;;;13.20;11.68;;;15.60;46.10;;;;;;5094683;28;20040;-45
2022/03/04 00:21:34;;;;;;;13.68;11.95;;;15.60;46.10;;;;;;5094018;28;20043;-46
2022/03/04 00:24:00;;;;;;;14.95;12.32;;;15.60;46.10;;;;;;5094866;28;20115;-46
2022/03/04 00:26:27;;;;;;;14.35;12.02;;;15.50;46.00;;;;;;5095422;28;20040;-46
2022/03/04 00:28:53;;;;;;;13.02;11.43;;;15.50;46.00;;;;;;5095687;28;20032;-45
2022/03/04 00:31:18;;;;;;;13.77;12.38;;;15.50;46.00;;;;;;5095302;28;20059;-45
2022/03/04 00:33:45;;;;;;;13.43;11.77;;;15.60;46.10;;;;;;5095595;28;20022;-46
2022/03/04 00:36:11;;;;;;;13.15;11.63;;;15.50;46.00;;;;;;5096094;28;20048;-48
2022/03/04 00:38:38;;;;;;;13.15;11.75;;;15.50;46.00;;;;;;5094410;28;20046;-48
2022/03/04 00:41:04;;;;;;;13.57;11.93;;;15.60;46.00;;;;;;5095619;28;20051;-45
2022/03/04 00:43:30;;;;;;;13.93;12.15;;;15.60;45.80;;;;;;5096230;28;20455;-45
2022/03/04 00:45:56;;;;;;;13.82;12.02;;;15.70;45.50;;;;;;5095703;28;20012;-44
2022/03/04 00:48:22;;;;;;;13.15;11.85;;;15.90;45.20;;;;;;5095527;28;20070;-44
2022/03/04 00:50:49;;;;;;;13.55;12.05;;;16.00;45.00;;;;;;5095495;28;20019;-44
2022/03/04 00:53:15;;;;;;;13.82;11.85;;;16.00;44.70;;;;;;5095720;28;20032;-45
2022/03/04 00:55:41;;;;;;;13.55;11.63;;;16.20;44.60;;;;;;5095774;28;20028;-44
2022/03/04 00:58:07;;;;;;;12.95;11.55;;;16.20;44.40;;;;;;5095128;28;20016;-44
2022/03/04 01:00:33;;;;;;;12.98;11.55;;;16.30;44.20;;;;;;5093836;28;20016;-46
2022/03/04 01:03:00;;;;;;;12.80;11.50;;;16.40;44.10;;;;;;5095294;28;20111;-44
2022/03/04 01:05:26;;;;;;;13.68;12.25;;;16.50;43.90;;;;;;5095440;28;20016;-44
2022/03/04 01:07:51;;;;;;;13.80;12.38;;;16.60;43.70;;;;;;5095067;28;20497;-46
2022/03/04 01:10:18;;;;;;;14.90;11.70;;;16.60;43.50;;;;;;5095058;28;20069;-42
2022/03/04 01:12:45;;;;;;;14.15;12.15;;;16.70;43.30;;;;;;5094770;28;20052;-44
2022/03/04 01:15:11;;;;;;;15.43;12.02;;;16.80;43.20;;;;;;5094681;28;20028;-42
2022/03/04 01:17:37;;;;;;;13.77;12.02;;;16.80;43.00;;;;;;5094278;28;20070;-43
2022/03/04 01:20:03;;;;;;;13.27;11.88;;;16.90;42.90;;;;;;5094217;28;20146;-44
2022/03/04 01:22:30;;;;;;;13.18;11.30;;;16.90;42.80;;;;;;5094480;28;20024;-42
2022/03/04 01:24:56;;;;;;;13.10;11.80;;;17.00;42.70;;;;;;5094542;28;20049;-44
2022/03/04 01:27:22;;;;;;;11.93;10.55;;;17.00;42.60;;;;;;5094417;28;20035;-43
2022/03/04 01:29:49;;;;;;;15.88;11.60;;;17.10;42.60;;;;;;5094515;28;20031;-43
2022/03/04 01:32:15;;;;;;;13.50;12.07;;;17.10;42.50;;;;;;5094029;28;20020;-42
2022/03/04 01:34:41;;;;;;;14.98;12.05;;;17.10;42.40;;;;;;5094375;28;20027;-43
2022/03/04 01:37:07;;;;;;;12.95;11.65;;;17.20;42.40;;;;;;5094221;28;20419;-44
2022/03/04 01:39:34;;;;;;;12.77;11.57;;;17.20;42.30;;;;;;5094229;28;20027;-42
2022/03/04 01:41:59;;;;;;;13.18;11.35;;;17.20;42.20;;;;;;5094569;28;20046;-43
2022/03/04 01:44:25;;;;;;;12.95;11.52;;;17.30;42.20;;;;;;5093796;28;20495;-43
2022/03/04 01:46:52;;;;;;;12.40;11.10;;;17.30;42.10;;;;;;5093996;28;20019;-43
2022/03/04 01:49:18;;;;;;;13.25;11.85;;;17.30;42.10;;;;;;5093992;28;20027;-43
2022/03/04 01:51:44;;;;;;;14.20;11.63;;;17.30;42.00;;;;;;5093666;28;20475;-43
2022/03/04 01:54:11;;;;;;;13.50;12.13;;;17.30;42.00;;;;;;5093723;28;20031;-42
2022/03/04 01:56:37;;;;;;;13.25;11.88;;;17.40;41.90;;;;;;5093725;28;20062;-43
2022/03/04 01:59:02;;;;;;;13.45;11.52;;;17.40;41.90;;;;;;5093700;28;20020;-43
2022/03/04 02:01:29;;;;;;;13.75;12.35;;;17.40;41.80;;;;;;5093732;28;20100;-42
2022/03/04 02:03:55;;;;;;;12.00;10.85;;;17.50;41.80;;;;;;5093816;28;20020;-42
2022/03/04 02:06:21;;;;;;;12.95;11.60;;;17.50;41.80;;;;;;5093676;28;20012;-43
2022/03/04 02:08:48;;;;;;;12.18;10.88;;;17.50;41.70;;;;;;5094251;28;20020;-42
2022/03/04 02:11:15;;;;;;;12.98;11.65;;;17.50;41.80;;;;;;5093832;28;20467;-43
2022/03/04 02:13:43;;;;;;;12.63;11.07;;;17.50;41.70;;;;;;5093916;28;20020;-44
2022/03/04 02:16:26;;;;;;;13.05;11.63;;;17.50;41.60;;;;;;5094393;28;20061;-43
2022/03/04 02:18:52;;;;;;;13.85;11.60;;;17.60;41.70;;;;;;5093528;28;20487;-43
2022/03/04 02:21:20;;;;;;;13.93;10.88;;;17.60;41.60;;;;;;5093283;28;20509;-43
2022/03/04 02:23:47;;;;;;;13.32;11.63;;;17.60;41.50;;;;;;5092376;28;20008;-43
2022/03/04 02:26:12;;;;;;;12.68;11.38;;;17.60;41.50;;;;;;5093716;28;20013;-43
2022/03/04 02:28:39;;;;;;;12.77;10.63;;;17.60;41.50;;;;;;5092577;28;20020;-43
2022/03/04 02:31:05;;;;;;;13.27;11.93;;;17.60;41.40;;;;;;5093719;28;20055;-42
2022/03/04 02:33:31;;;;;;;13.18;11.55;;;17.60;41.50;;;;;;5093520;28;20099;-44
2022/03/04 02:35:57;;;;;;;14.23;10.77;;;17.60;41.50;;;;;;5092315;28;20059;-43
2022/03/04 02:38:23;;;;;;;14.75;11.93;;;17.60;41.50;;;;;;5093161;28;20024;-43
2022/03/04 02:40:50;;;;;;;13.13;11.50;;;17.70;41.50;;;;;;5093634;28;20028;-43
2022/03/04 02:43:17;;;;;;;14.32;11.27;;;17.70;41.40;;;;;;5093559;28;20135;-43
2022/03/04 02:45:43;;;;;;;12.32;11.10;;;17.70;41.40;;;;;;5092992;28;20012;-44
2022/03/04 02:48:09;;;;;;;12.73;11.48;;;17.70;41.40;;;;;;5093442;28;20436;-43
2022/03/04 02:50:36;;;;;;;11.85;10.68;;;17.70;41.40;;;;;;5092285;28;20073;-43
2022/03/04 02:53:03;;;;;;;14.32;11.68;;;17.70;41.40;;;;;;5093459;28;20024;-43
2022/03/04 02:55:30;;;;;;;12.20;10.55;;;17.70;41.30;;;;;;5093182;28;20016;-42
2022/03/04 02:57:56;;;;;;;12.20;10.90;;;17.80;41.30;;;;;;5093181;28;20471;-43
2022/03/04 03:00:22;;;;;;;12.55;11.13;;;17.70;41.20;;;;;;5093425;28;20012;-44
2022/03/04 03:02:49;;;;;;;13.05;11.85;;;17.70;41.20;;;;;;5093179;28;20040;-44
2022/03/04 03:05:15;;;;;;;12.80;11.30;;;17.70;41.20;;;;;;5092971;28;20013;-43
2022/03/04 03:07:41;;;;;;;13.63;10.65;;;17.80;41.20;;;;;;5093481;28;20081;-45
2022/03/04 03:10:09;;;;;;;12.88;11.57;;;17.70;41.30;;;;;;5093159;28;20104;-44
2022/03/04 03:12:36;;;;;;;12.68;11.25;;;17.80;41.40;;;;;;5092640;28;20169;-42
2022/03/04 03:15:02;;;;;;;12.48;11.18;;;17.80;41.30;;;;;;5092917;28;20054;-42
2022/03/04 03:17:28;;;;;;;12.52;11.15;;;17.80;41.20;;;;;;5092576;28;20012;-43
2022/03/04 03:19:54;;;;;;;12.15;10.85;;;17.80;41.20;;;;;;5092518;28;20040;-42
2022/03/04 03:22:20;;;;;;;13.13;11.82;;;17.80;41.20;;;;;;5092786;28;20024;-42
2022/03/04 03:24:47;;;;;;;12.98;11.40;;;17.80;41.20;;;;;;5092537;28;20012;-42
2022/03/04 03:27:12;;;;;;;13.93;11.10;;;17.80;41.20;;;;;;5092895;28;20024;-43
2022/03/04 03:29:39;;;;;;;12.48;11.25;;;17.80;41.10;;;;;;5091739;28;20016;-43
2022/03/04 03:32:05;;;;;;;12.27;11.07;;;17.90;41.10;;;;;;5092730;28;20536;-43
2022/03/04 03:34:31;;;;;;;11.88;10.63;;;17.80;41.10;;;;;;5092956;28;20021;-44
2022/03/04 03:36:58;;;;;;;12.68;11.32;;;17.90;41.10;;;;;;5092948;28;20027;-42
2022/03/04 03:39:25;;;;;;;12.73;11.02;;;17.90;41.70;;;;;;5092552;28;20471;-43
2022/03/04 03:41:51;;;;;;;12.18;10.98;;;17.90;41.00;;;;;;5092234;28;20506;-43
2022/03/04 03:44:18;;;;;;;12.85;11.50;;;17.90;41.10;;;;;;5092539;28;20065;-43
2022/03/04 03:46:44;;;;;;;12.13;10.93;;;17.90;41.10;;;;;;5092634;28;20038;-45
2022/03/04 03:49:10;;;;;;;12.38;11.15;;;17.90;41.00;;;;;;5092617;28;20382;-42
2022/03/04 03:51:36;;;;;;;12.88;11.00;;;17.90;41.00;;;;;;5092921;28;20021;-43
2022/03/04 03:54:03;;;;;;;14.57;11.35;;;17.90;41.00;;;;;;5092636;28;20077;-42
2022/03/04 03:56:29;;;;;;;11.95;10.75;;;18.00;41.00;;;;;;5092725;28;20048;-41
2022/03/04 03:58:55;;;;;;;12.57;11.10;;;18.00;41.00;;;;;;5096363;28;20012;-41
2022/03/04 04:01:22;;;;;;;11.98;10.77;;;18.00;41.00;;;;;;5095844;28;20490;-41
2022/03/04 04:03:48;;;;;;;11.88;10.68;;;18.00;40.90;;;;;;5096230;28;20012;-42
2022/03/04 04:06:14;;;;;;;11.38;10.23;;;18.00;41.00;;;;;;5096056;28;20032;-42
2022/03/04 04:08:40;;;;;;;12.10;10.88;;;18.00;41.00;;;;;;5095630;28;20017;-41
2022/03/04 04:11:06;;;;;;;11.60;10.43;;;17.90;41.00;;;;;;5095863;28;20107;-41
2022/03/04 04:13:32;;;;;;;12.50;11.30;;;17.90;41.00;;;;;;5094383;28;20474;-41
2022/03/04 04:15:58;;;;;;;12.45;11.20;;;18.00;41.10;;;;;;5095604;28;20073;-41
2022/03/04 04:18:25;;;;;;;12.95;11.57;;;18.00;41.10;;;;;;5094892;28;20077;-43
2022/03/04 04:20:51;;;;;;;12.70;11.25;;;18.00;41.00;;;;;;5097789;28;20043;-43
2022/03/04 04:23:17;;;;;;;14.25;11.05;;;18.00;40.90;;;;;;5098138;28;20024;-42
2022/03/04 04:25:44;;;;;;;12.30;10.93;;;18.00;40.90;;;;;;5096063;28;20012;-43
2022/03/04 04:28:10;;;;;;;11.98;10.85;;;18.00;40.90;;;;;;5094371;28;20065;-42
2022/03/04 04:30:36;;;;;;;11.55;10.38;;;18.00;40.80;;;;;;5095873;28;20498;-42
2022/03/04 04:33:02;;;;;;;12.05;10.73;;;18.10;40.90;;;;;;5096695;28;20016;-44
2022/03/04 04:35:28;;;;;;;11.68;10.48;;;18.00;40.90;;;;;;5096759;28;20016;-43
2022/03/04 04:37:54;;;;;;;12.07;10.73;;;17.90;41.00;;;;;;5095948;28;20035;-41
2022/03/04 04:40:20;;;;;;;12.40;11.10;;;18.00;41.10;;;;;;5095950;28;20016;-41
2022/03/04 04:42:46;;;;;;;13.02;11.10;;;18.00;41.00;;;;;;5095783;28;20055;-42
2022/03/04 04:45:13;;;;;;;13.13;11.13;;;18.10;40.90;;;;;;5095594;28;20024;-42
2022/03/04 04:47:39;;;;;;;12.48;11.27;;;18.00;40.80;;;;;;5095903;28;20016;-42
2022/03/04 04:50:05;;;;;;;11.82;10.63;;;18.10;40.90;;;;;;5096042;28;20544;-41
2022/03/04 04:52:31;;;;;;;13.98;11.20;;;18.00;40.80;;;;;;5095359;28;20078;-42
2022/03/04 04:54:57;;;;;;;13.18;10.98;;;18.10;40.80;;;;;;5096124;28;20016;-42
2022/03/04 04:57:23;;;;;;;12.05;10.85;;;18.00;40.80;;;;;;5096541;28;20093;-42
2022/03/04 04:59:49;;;;;;;12.30;10.88;;;18.00;41.00;;;;;;5094484;28;20466;-41
2022/03/04 05:02:15;;;;;;;14.68;11.55;;;18.00;41.00;;;;;;5094087;28;20024;-42
2022/03/04 05:04:42;;;;;;;12.57;11.20;;;18.00;41.10;;;;;;5094150;28;20072;-43
2022/03/04 05:07:08;;;;;;;13.25;10.65;;;17.90;41.00;;;;;;5094934;28;20016;-42
2022/03/04 05:09:34;;;;;;;11.95;10.73;;;17.90;41.10;;;;;;5095516;28;20020;-42
2022/03/04 05:12:00;;;;;;;11.85;10.70;;;17.80;41.20;;;;;;5095598;28;20107;-42
2022/03/04 05:14:26;;;;;;;12.07;10.77;;;17.80;41.30;;;;;;5095582;28;20101;-43
2022/03/04 05:16:51;;;;;;;12.10;11.00;;;17.80;41.30;;;;;;5093740;28;20024;-42
2022/03/04 05:19:18;;;;;;;13.63;10.63;;;17.80;41.40;;;;;;5093578;28;20058;-42
2022/03/04 05:21:44;;;;;;;11.30;10.20;;;17.70;41.50;;;;;;5094588;28;20490;-43
2022/03/04 05:24:11;;;;;;;13.50;11.27;;;17.70;41.60;;;;;;5093587;28;20023;-42
2022/03/04 05:26:38;;;;;;;14.43;11.40;;;17.60;41.70;;;;;;5095014;28;20024;-42
2022/03/04 05:29:09;;;;;;;12.00;10.60;;;17.60;41.80;;;;;;5095838;28;20016;-41
2022/03/04 05:31:38;;;;;;;11.80;10.68;;;17.50;41.80;;;;;;5096033;28;20016;-42
2022/03/04 05:34:03;;;;;;;12.38;10.38;;;17.50;41.90;;;;;;5095601;28;20020;-42
2022/03/04 05:36:29;;;;;;;11.82;10.63;;;17.50;41.90;;;;;;5094962;28;20020;-43
2022/03/04 05:38:55;;;;;;;11.25;10.15;;;17.50;42.00;;;;;;5094945;28;20047;-43
2022/03/04 05:41:21;;;;;;;11.10;10.00;;;17.40;42.10;;;;;;5094894;28;20024;-42
2022/03/04 05:43:48;;;;;;;12.57;11.05;;;17.40;42.20;;;;;;5095057;28;20024;-47
2022/03/04 05:46:14;;;;;;;12.20;10.57;;;17.40;42.20;;;;;;5095211;28;20004;-42
2022/03/04 05:48:41;;;;;;;13.77;11.30;;;17.30;42.20;;;;;;5094944;28;20028;-42
2022/03/04 05:51:06;;;;;;;12.95;11.10;;;17.30;42.20;;;;;;5094297;28;20012;-43
2022/03/04 05:53:32;;;;;;;11.82;10.63;;;17.30;42.40;;;;;;5094307;28;20122;-43
2022/03/04 05:56:05;;;;;;;11.77;10.50;;;17.30;42.30;;;;;;5094519;28;20043;-43
2022/03/04 05:58:32;;;;;;;11.82;10.63;;;17.20;42.40;;;;;;5094099;28;20012;-42
2022/03/04 06:00:59;;;;;;;12.80;11.38;;;17.20;42.50;;;;;;5093897;28;20031;-41
2022/03/04 06:03:25;;;;;;;12.52;11.23;;;17.20;42.60;;;;;;5093771;28;20015;-42
2022/03/04 06:05:51;;;;;;;12.75;10.68;;;17.10;42.70;;;;;;5093528;28;20013;-44
2022/03/04 06:08:18;;;;;;;12.73;10.65;;;17.10;42.70;;;;;;5093979;28;20039;-48
2022/03/04 06:10:43;;;;;;;12.23;11.02;;;17.10;42.80;;;;;;5092821;28;20085;-45
2022/03/04 06:13:09;;;;;;;12.38;11.18;;;17.10;42.90;;;;;;5094233;28;20111;-44
2022/03/04 06:15:35;;;;;;;11.93;10.70;;;17.00;42.90;;;;;;5094263;28;20020;-46
2022/03/04 06:18:02;;;;;;;12.50;10.98;;;17.00;43.10;;;;;;5093755;28;20032;-46
2022/03/04 06:20:27;;;;;;;11.77;10.57;;;16.90;43.00;;;;;;5093011;28;20105;-46
2022/03/04 06:22:54;;;;;;;12.57;11.27;;;16.90;43.20;;;;;;5094352;28;20032;-45
2022/03/04 06:25:20;;;;;;;12.95;11.32;;;16.90;43.30;;;;;;5092473;28;20025;-46
2022/03/04 06:28:00;;;;;;;12.75;11.05;;;16.80;43.30;;;;;;5093898;28;20012;-45
2022/03/04 06:30:27;;;;;;;13.13;11.35;;;16.80;43.30;;;;;;5092151;28;20065;-47
2022/03/04 06:35:38;;;;;;;12.98;11.23;;;16.70;43.40;;;;;;5094221;28;20077;-48
2022/03/04 06:38:05;;;;;;;12.55;11.15;;;16.70;43.50;;;;;;5093757;28;20025;-48
2022/03/04 06:40:30;;;;;;;11.80;10.57;;;16.70;43.50;;;;;;5094068;28;20015;-50
2022/03/04 06:42:56;;;;;;;13.23;11.00;;;16.70;43.60;;;;;;5075159;28;20035;-47
2022/03/04 06:45:23;;;;;;;12.90;10.73;;;16.70;43.60;;;;;;5093007;28;20024;-45
2022/03/04 06:47:49;;;;;;;12.18;10.88;;;16.70;43.70;;;;;;5092104;28;20004;-44
2022/03/04 06:50:15;;;;;;;11.27;10.18;;;16.60;43.70;;;;;;5093208;28;20047;-45
2022/03/04 06:52:43;;;;;;;12.15;10.95;;;16.60;43.80;;;;;;5093456;28;20024;-44
2022/03/04 06:55:09;;;;;;;12.27;10.98;;;16.60;43.80;;;;;;5093244;28;20032;-46
2022/03/04 06:57:36;;;;;;;13.00;11.70;;;16.50;43.80;;;;;;5092625;28;20016;-44
2022/03/04 07:00:07;;;;;;;12.32;11.00;;;16.50;43.90;;;;;;5092978;28;20103;-45
2022/03/04 07:02:34;;;;;;;12.20;11.00;;;16.50;43.90;;;;;;5092906;28;20028;-44
2022/03/04 07:05:07;;;;;;;12.48;11.18;;;16.50;44.00;;;;;;5091396;28;20016;-44
2022/03/04 07:07:33;;;;;;;13.50;11.40;;;16.50;44.10;;;;;;5092736;28;20016;-45
2022/03/04 07:09:59;;;;;;;13.32;10.95;;;16.40;44.10;;;;;;5091868;28;20032;-46
2022/03/04 07:12:25;;;;;;;13.32;11.73;;;16.50;44.10;;;;;;5092701;28;20030;-45
2022/03/04 07:14:51;;;;;;;12.70;11.05;;;16.40;44.10;;;;;;5092590;28;20450;-45
2022/03/04 07:17:17;;;;;;;13.20;11.18;;;16.40;44.10;;;;;;5092525;28;20052;-46
2022/03/04 07:19:43;;;;;;;12.40;11.10;;;16.60;43.90;;;;;;5092362;28;20044;-46
2022/03/04 07:22:09;;;;;;;12.38;11.07;;;16.70;43.60;;;;;;5091227;28;20050;-45
2022/03/04 07:24:35;;;;;;;14.63;10.88;;;16.70;43.50;;;;;;5092801;28;20019;-46
2022/03/04 07:27:01;;;;;;;12.30;11.05;;;16.80;43.30;;;;;;5092624;28;20012;-48
2022/03/04 07:29:27;;;;;;;11.85;10.20;;;16.80;43.20;;;;;;5092447;28;20099;-48
2022/03/04 07:31:54;;;;;;;12.38;11.10;;;16.90;43.00;;;;;;5095309;28;20063;-46
2022/03/04 07:34:21;;;;;;;12.05;10.85;;;17.00;42.80;;;;;;5096307;28;20020;-47
2022/03/04 07:36:47;;;;;;;13.63;10.48;;;17.10;42.60;;;;;;5096183;28;20024;-49
2022/03/04 07:39:13;;;;;;;11.88;10.57;;;17.20;42.50;;;;;;5096354;28;20032;-46
2022/03/04 07:41:39;;;;;;;12.15;10.95;;;17.30;42.40;;;;;;5096320;28;20363;-49
2022/03/04 07:44:05;;;;;;;11.98;10.77;;;17.30;42.10;;;;;;5096758;28;20008;-45
2022/03/04 07:46:31;;;;;;;11.65;10.50;;;17.50;42.00;;;;;;5096399;28;20035;-48
2022/03/04 07:48:57;;;;;;;11.95;10.00;;;17.50;41.80;;;;;;5095067;28;20013;-48
2022/03/04 07:51:23;;;;;;;11.93;10.63;;;17.60;41.70;;;;;;5094858;28;20501;-46
2022/03/04 07:53:49;;;;;;;11.98;10.32;;;17.70;41.50;;;;;;5095186;28;20017;-46
2022/03/04 07:56:16;;;;;;;11.85;10.65;;;17.80;41.30;;;;;;5095997;28;20017;-51
2022/03/04 07:58:41;;;;;;;11.80;10.60;;;17.90;41.10;;;;;;5096660;28;20050;-50
2022/03/04 08:01:08;;;;;;;10.82;9.73;;;18.00;40.90;;;;;;5097042;28;20093;-49
2022/03/04 08:03:34;;;;;;;12.80;11.45;;;18.10;40.80;;;;;;5094900;28;20020;-47
2022/03/04 08:06:00;;;;;;;11.98;9.90;;;18.10;40.60;;;;;;5096053;28;20016;-53
2022/03/04 08:08:26;;;;;;;12.20;10.25;;;18.10;40.60;;;;;;5096095;28;20038;-49
2022/03/04 08:10:54;;;;;;;11.70;10.50;;;18.20;40.60;;;;;;5095923;28;20016;-52
2022/03/04 08:13:20;;;;;;;10.85;9.80;;;18.20;40.50;;;;;;5097196;28;20042;-52
2022/03/04 08:15:45;;;;;;;11.25;10.15;;;18.30;40.40;;;;;;5097937;28;20040;-52
2022/03/04 08:18:11;;;;;;;11.18;10.13;;;18.30;40.20;;;;;;5081139;28;20089;-53
2022/03/04 08:20:38;;;;;;;11.23;10.13;;;18.40;40.20;;;;;;5099385;28;20237;-55
2022/03/04 08:23:04;;;;;;;11.35;9.52;;;18.40;40.00;;;;;;5099196;28;20500;-53
2022/03/04 08:25:31;;;;;;;10.88;9.77;;;18.50;40.00;;;;;;5098531;28;20068;-51
2022/03/04 08:27:56;;;;;;;10.55;9.45;;;18.60;39.80;;;;;;5097804;28;20096;-50
2022/03/04 08:30:23;;;;;;;12.10;10.45;;;18.60;39.70;;;;;;5098082;28;20035;-52
2022/03/04 08:32:49;;;;;;;14.15;10.52;;;18.70;39.60;;;;;;5097512;28;20486;-51
2022/03/04 08:35:14;;;;;;;11.80;10.52;;;18.80;40.10;;;;;;5096112;28;20031;-52
2022/03/04 08:37:41;;;;;;;11.32;10.23;;;18.80;39.50;;;;;;5095687;28;20470;-52
2022/03/04 08:40:11;;;;;;;12.98;10.55;;;18.80;39.30;;;;;;5097423;28;20035;-48
2022/03/04 08:42:37;;;;;;;10.93;9.63;;;18.90;39.30;;;;;;5097542;28;20032;-47
2022/03/04 08:45:05;;;;;;;10.63;9.38;;;18.90;39.20;;;;;;5099877;28;20095;-52
2022/03/04 08:47:31;;;;;;;15.73;9.68;;;19.00;39.10;;;;;;5098104;28;20023;-49
2022/03/04 08:49:57;;;;;;;14.60;9.65;;;19.10;39.00;;;;;;5097187;28;20027;-50
2022/03/04 08:52:22;;;;;;;11.77;9.55;;;19.20;38.90;;;;;;5097107;28;20012;-51
2022/03/04 08:54:48;;;;;;;12.00;10.00;;;19.20;38.80;;;;;;5095773;28;20016;-50
2022/03/04 08:57:14;;;;;;;10.82;9.73;;;19.30;38.80;;;;;;5096500;28;20097;-47
2022/03/04 08:59:40;;;;;;;10.98;9.77;;;19.30;38.70;;;;;;5096015;28;20055;-49
2022/03/04 09:02:06;;;;;;;10.82;9.73;;;19.30;38.70;;;;;;5094870;28;20032;-52
2022/03/04 09:04:33;;;;;;;10.95;9.85;;;19.30;38.70;;;;;;5094543;28;20539;-52
2022/03/04 09:07:00;;;;;;;12.02;10.82;;;19.30;38.70;;;;;;5095911;28;20099;-54
2022/03/04 09:09:26;;;;;;;11.00;9.90;;;19.30;38.70;;;;;;5096878;28;20016;-51
2022/03/04 09:11:52;;;;;;;11.48;10.27;;;19.30;38.70;;;;;;5095235;28;20085;-53
2022/03/04 09:14:23;;;;;;;11.23;10.05;;;19.30;38.70;;;;;;5094797;28;20020;-52
2022/03/04 09:16:49;;;;;;;13.05;10.30;;;19.30;38.80;;;;;;5096465;28;20103;-51
2022/03/04 09:19:15;;;;;;;11.07;9.98;;;19.30;38.80;;;;;;5096110;28;20128;-51
2022/03/04 09:21:41;;;;;;;10.98;9.98;;;19.30;38.80;;;;;;5096041;28;20036;-50
2022/03/04 09:24:07;;;;;;;10.65;9.57;;;19.30;38.80;;;;;;5095555;28;20108;-48
2022/03/04 09:26:34;;;;;;;11.13;10.02;;;19.30;38.70;;;;;;5095277;28;20487;-46
2022/03/04 09:28:59;;;;;;;10.88;9.82;;;19.30;38.70;;;;;;5093565;28;20020;-49
2022/03/04 09:31:27;;;;;;;11.07;10.02;;;19.40;38.70;;;;;;5095746;28;20095;-47
2022/03/04 09:33:53;;;;;;;10.43;9.32;;;19.40;38.70;;;;;;5095781;28;20035;-47
2022/03/04 09:36:19;;;;;;;10.77;9.70;;;19.40;38.70;;;;;;5095903;28;20026;-48
2022/03/04 09:38:45;;;;;;;10.82;9.73;;;19.40;38.60;;;;;;5094789;28;20095;-49
2022/03/04 09:41:11;;;;;;;10.43;9.43;;;19.50;38.70;;;;;;5095198;28;20048;-47
2022/03/04 09:43:38;;;;;;;10.98;9.70;;;19.50;38.70;;;;;;5094827;28;20016;-50
2022/03/04 09:46:03;;;;;;;12.32;10.07;;;19.50;38.70;;;;;;5094011;28;20017;-50
2022/03/04 09:48:29;;;;;;;12.57;10.13;;;19.50;38.70;;;;;;5093994;28;20125;-52
2022/03/04 09:50:56;;;;;;;10.35;9.35;;;19.50;38.70;;;;;;5094098;28;20008;-49
2022/03/04 09:53:21;;;;;;;10.88;9.75;;;19.50;38.60;;;;;;5093863;28;20028;-51
2022/03/04 09:55:47;;;;;;;11.20;10.10;;;19.50;38.60;;;;;;5093976;28;20532;-50
2022/03/04 09:58:16;;;;;;;11.02;9.98;;;19.50;38.60;;;;;;5093940;28;20043;-51
2022/03/04 10:00:43;;;;;;;10.10;9.10;;;19.50;38.60;;;;;;5092635;28;20031;-49
2022/03/04 10:03:30;;;;;;;10.88;9.50;;;19.50;38.70;;;;;;5093723;28;20050;-48
2022/03/04 10:05:57;;;;;;;10.90;9.73;;;19.50;38.60;;;;;;5092253;28;20480;-49
2022/03/04 10:08:23;;;;;;;11.15;9.32;;;19.60;38.60;;;;;;5093409;28;20004;-51
2022/03/04 10:10:52;;;;;;;9.88;8.98;;;19.50;38.60;;;;;;5093436;28;20374;-51
2022/03/04 10:13:18;;;;;;;10.13;9.13;;;19.60;38.70;;;;;;5093439;28;20016;-48
2022/03/04 10:15:57;;;;;;;10.48;9.35;;;19.60;38.70;;;;;;5093333;28;20031;-49
2022/03/04 10:18:25;;;;;;;13.88;9.57;;;19.60;38.70;;;;;;5093188;28;20026;-48
2022/03/04 10:20:55;;;;;;;10.25;9.40;;;19.60;38.70;;;;;;5093276;28;20043;-48
2022/03/04 10:23:26;;;;;;;12.88;9.88;;;19.60;38.70;;;;;;5094054;28;20043;-50
2022/03/04 10:25:56;;;;;;;10.65;9.55;;;19.70;38.70;;;;;;5094454;28;20020;-47
2022/03/04 10:28:26;;;;;;;10.52;9.40;;;19.60;38.60;;;;;;5094464;28;20036;-47
2022/03/04 10:30:53;;;;;;;9.75;8.75;;;19.60;38.60;;;;;;5094124;28;20015;-48
2022/03/04 10:33:20;;;;;;;9.68;8.77;;;19.60;38.60;;;;;;5093157;28;20027;-49
2022/03/04 10:35:50;;;;;;;11.68;9.85;;;19.70;38.60;;;;;;5093181;28;20494;-49
2022/03/04 10:38:23;;;;;;;11.25;9.45;;;19.70;38.60;;;;;;5093277;28;20030;-48
2022/03/04 10:40:50;;;;;;;10.27;9.30;;;19.70;38.60;;;;;;5093332;28;20471;-46
2022/03/04 10:43:25;;;;;;;9.80;8.90;;;19.70;38.60;;;;;;5094645;28;20111;-50
2022/03/04 10:46:02;;;;;;;10.82;9.73;;;19.70;38.60;;;;;;5094267;28;20008;-50
2022/03/04 10:48:28;;;;;;;10.52;9.43;;;19.70;38.60;;;;;;5093780;28;20020;-50
2022/03/04 10:50:55;;;;;;;10.68;8.75;;;19.70;38.60;;;;;;5094262;28;20016;-49
2022/03/04 10:53:26;;;;;;;9.98;8.98;;;19.70;38.60;;;;;;5094909;28;20092;-50
2022/03/04 10:55:58;;;;;;;10.85;9.75;;;19.70;38.70;;;;;;5094685;28;20039;-50
2022/03/04 10:58:28;;;;;;;11.20;9.98;;;19.70;38.60;;;;;;5094304;28;20474;-51
2022/03/04 11:01:08;;;;;;;10.45;9.45;;;19.70;38.70;;;;;;5094011;28;20063;-48
2022/03/04 11:03:34;;;;;;;9.55;8.65;;;19.70;38.70;;;;;;5094027;28;20024;-49
2022/03/04 11:06:04;;;;;;;10.13;9.13;;;19.70;38.60;;;;;;5095144;28;20024;-50
2022/03/04 11:08:31;;;;;;;13.30;9.48;;;19.80;38.70;;;;;;5097706;28;20023;-50
2022/03/04 11:10:57;;;;;;;9.80;8.77;;;19.80;38.70;;;;;;5097770;28;20016;-53
2022/03/04 11:13:23;;;;;;;10.35;9.02;;;19.80;38.60;;;;;;5097644;28;20065;-52
2022/03/04 11:15:49;;;;;;;10.45;9.27;;;19.80;38.60;;;;;;5097084;28;20478;-53
2022/03/04 11:18:16;;;;;;;10.50;9.50;;;19.80;38.70;;;;;;5099784;28;20535;-54
2022/03/04 11:20:44;;;;;;;10.30;9.20;;;19.80;38.70;;;;;;5099490;28;20490;-49
2022/03/04 11:23:15;;;;;;;11.82;9.18;;;19.80;38.70;;;;;;5099108;28;20020;-50
2022/03/04 11:25:42;;;;;;;10.07;9.07;;;19.80;38.70;;;;;;5098980;28;20063;-51
2022/03/04 11:28:18;;;;;;;9.38;8.57;;;19.80;38.70;;;;;;5096598;28;20084;-49
2022/03/04 11:30:48;;;;;;;11.95;9.30;;;19.90;38.70;;;;;;5097253;28;20061;-50
2022/03/04 11:33:21;;;;;;;10.45;8.68;;;19.80;38.60;;;;;;5096089;28;20494;-49
2022/03/04 11:35:51;;;;;;;10.10;9.13;;;19.80;38.70;;;;;;5097447;28;20020;-51
2022/03/04 11:38:16;;;;;;;10.23;9.23;;;19.90;38.70;;;;;;5096418;28;20107;-51
2022/03/04 11:40:49;;;;;;;9.75;8.75;;;19.80;38.60;;;;;;5097227;28;20493;-51
2022/03/04 11:43:15;;;;;;;10.05;9.00;;;19.80;38.70;;;;;;5096294;28;20012;-52
2022/03/04 11:45:41;;;;;;;9.02;8.13;;;19.80;38.70;;;;;;5096067;28;20016;-50
2022/03/04 11:48:17;;;;;;;9.93;8.93;;;19.80;38.70;;;;;;5096751;28;20020;-51
2022/03/04 11:50:42;;;;;;;10.43;9.38;;;19.90;38.80;;;;;;5095206;28;20031;-53
2022/03/04 11:53:13;;;;;;;9.70;8.80;;;19.90;38.70;;;;;;5096474;28;20091;-51
2022/03/04 11:55:39;;;;;;;9.25;8.35;;;19.90;38.70;;;;;;5096316;28;20024;-51
2022/03/04 11:58:05;;;;;;;10.77;8.65;;;19.90;38.70;;;;;;5096755;28;20047;-52
2022/03/04 12:00:33;;;;;;;9.75;8.77;;;19.90;38.70;;;;;;5096795;28;20051;-49
2022/03/04 12:03:12;;;;;;;9.82;8.93;;;19.90;38.70;;;;;;5097004;28;20028;-51
2022/03/04 12:05:47;;;;;;;9.75;8.85;;;20.00;38.70;;;;;;5096704;28;20008;-48
2022/03/04 12:08:13;;;;;;;9.77;8.80;;;20.00;38.70;;;;;;5094771;28;20020;-48
2022/03/04 12:10:43;;;;;;;9.15;8.23;;;20.00;38.70;;;;;;5095907;28;20016;-50
2022/03/04 12:13:25;;;;;;;9.50;8.48;;;20.00;38.70;;;;;;5095737;28;20012;-48
2022/03/04 12:16:03;;;;;;;10.02;9.00;;;20.00;38.60;;;;;;5095858;28;20024;-52
2022/03/04 12:18:31;;;;;;;9.45;8.55;;;20.00;38.60;;;;;;5094351;28;20012;-52
2022/03/04 12:20:57;;;;;;;9.15;8.15;;;20.10;38.60;;;;;;5095995;28;20028;-52
2022/03/04 12:23:37;;;;;;;9.48;8.30;;;20.10;38.60;;;;;;5096035;28;20028;-49
2022/03/04 12:26:05;;;;;;;10.18;8.85;;;20.10;38.60;;;;;;5096039;28;20086;-47
2022/03/04 12:28:45;;;;;;;9.75;8.75;;;20.10;38.60;;;;;;5095959;28;20051;-49
2022/03/04 12:31:11;;;;;;;9.02;8.15;;;20.10;38.60;;;;;;5096445;28;20012;-49
2022/03/04 12:33:42;;;;;;;9.27;8.25;;;20.10;38.60;;;;;;5096172;28;20016;-51